createdAt,value
2018-09-23T00:02:19.043Z,12.50
2018-09-23T00:04:47.674Z,12.50
2018-09-23T00:07:16.414Z,12.50
2018-09-23T00:09:44.823Z,12.50
2018-09-23T00:12:13.406Z,12.60
2018-09-23T00:14:42.095Z,12.60
2018-09-23T00:17:10.722Z,12.60
2018-09-23T00:19:39.331Z,12.60
2018-09-23T00:22:07.699Z,12.60
2018-09-23T00:24:36.342Z,12.70
2018-09-23T00:27:04.737Z,12.70
2018-09-23T00:29:38.787Z,12.70
2018-09-23T00:32:07.170Z,12.80
2018-09-23T00:34:35.531Z,12.70
2018-09-23T00:37:03.982Z,12.60
2018-09-23T00:39:32.351Z,12.60
2018-09-23T00:42:01.287Z,12.40
2018-09-23T00:44:29.644Z,12.40
2018-09-23T00:46:58.250Z,12.30
2018-09-23T00:49:26.619Z,12.30
2018-09-23T00:51:55.520Z,12.20
2018-09-23T00:54:24.618Z,12.10
2018-09-23T00:56:53.746Z,12.00
2018-09-23T00:59:22.606Z,11.80
2018-09-23T01:01:50.965Z,11.80
2018-09-23T01:04:20.278Z,11.70
2018-09-23T01:06:48.654Z,11.70
2018-09-23T01:09:18.087Z,11.60
2018-09-23T01:11:46.456Z,11.70
2018-09-23T01:14:14.846Z,11.70
2018-09-23T01:16:43.199Z,11.60
2018-09-23T01:19:11.627Z,11.60
2018-09-23T01:21:40.318Z,11.50
2018-09-23T01:24:08.940Z,11.50
2018-09-23T01:26:37.320Z,11.50
2018-09-23T01:29:05.722Z,11.50
2018-09-23T01:31:34.142Z,11.50
2018-09-23T01:34:03.171Z,11.40
2018-09-23T01:36:31.833Z,11.30
2018-09-23T01:39:00.491Z,11.30
2018-09-23T01:41:29.170Z,11.30
2018-09-23T01:43:57.779Z,11.30
2018-09-23T01:46:26.165Z,11.30
2018-09-23T01:48:55.402Z,11.20
2018-09-23T01:51:23.782Z,11.20
2018-09-23T01:53:52.207Z,11.20
2018-09-23T01:56:20.869Z,11.20
2018-09-23T01:58:49.234Z,11.30
2018-09-23T02:01:17.594Z,11.20
2018-09-23T02:03:45.951Z,11.20
2018-09-23T02:06:14.331Z,11.20
2018-09-23T02:08:42.987Z,11.20
2018-09-23T02:11:11.959Z,11.20
2018-09-23T02:13:40.570Z,11.20
2018-09-23T02:16:08.938Z,11.30
2018-09-23T02:18:37.303Z,11.20
2018-09-23T02:21:05.987Z,11.20
2018-09-23T02:23:34.654Z,11.20
2018-09-23T02:26:03.983Z,11.10
2018-09-23T02:28:32.611Z,11.00
2018-09-23T02:31:01.523Z,11.00
2018-09-23T02:33:30.502Z,11.00
2018-09-23T02:35:58.895Z,11.00
2018-09-23T02:38:27.271Z,11.10
2018-09-23T02:40:55.628Z,11.00
2018-09-23T02:43:24.538Z,11.10
2018-09-23T02:45:53.203Z,10.90
2018-09-23T02:48:22.098Z,11.10
2018-09-23T02:50:50.727Z,11.00
2018-09-23T02:53:19.175Z,11.00
2018-09-23T02:55:47.871Z,11.00
2018-09-23T02:58:16.463Z,11.00
2018-09-23T03:00:44.859Z,11.10
2018-09-23T03:03:13.247Z,11.00
2018-09-23T03:05:41.651Z,11.00
2018-09-23T03:08:10.040Z,11.00
2018-09-23T03:10:38.774Z,11.10
2018-09-23T03:13:07.150Z,11.00
2018-09-23T03:15:35.828Z,10.70
2018-09-23T03:18:04.228Z,11.00
2018-09-23T03:20:32.599Z,11.10
2018-09-23T03:23:01.543Z,11.10
2018-09-23T03:25:29.931Z,11.10
2018-09-23T03:27:58.911Z,11.10
2018-09-23T03:30:27.494Z,11.20
2018-09-23T03:32:56.200Z,11.10
2018-09-23T03:35:25.092Z,11.10
2018-09-23T03:37:53.459Z,11.10
2018-09-23T03:40:22.134Z,11.20
2018-09-23T03:42:50.549Z,11.20
2018-09-23T03:45:18.946Z,11.20
2018-09-23T03:47:47.883Z,11.20
2018-09-23T03:50:16.271Z,11.30
2018-09-23T03:52:44.635Z,11.30
2018-09-23T03:55:13.275Z,11.30
2018-09-23T03:57:41.654Z,11.20
2018-09-23T04:00:10.082Z,11.40
2018-09-23T04:02:38.487Z,11.40
2018-09-23T04:05:07.251Z,11.40
2018-09-23T04:07:35.855Z,11.40
2018-09-23T04:10:04.281Z,11.50
2018-09-23T04:12:32.927Z,11.50
2018-09-23T04:15:01.299Z,11.40
2018-09-23T04:17:29.930Z,11.40
2018-09-23T04:19:58.562Z,11.40
2018-09-23T04:22:26.947Z,11.50
2018-09-23T04:24:55.838Z,11.60
2018-09-23T04:27:24.215Z,11.60
2018-09-23T04:29:52.950Z,11.60
2018-09-23T04:32:21.867Z,11.70
2018-09-23T04:34:50.218Z,11.70
2018-09-23T04:37:18.858Z,11.80
2018-09-23T04:39:47.239Z,11.90
2018-09-23T04:42:15.584Z,11.90
2018-09-23T04:44:44.036Z,12.00
2018-09-23T04:47:12.399Z,12.00
2018-09-23T04:49:40.999Z,12.00
2018-09-23T04:52:09.362Z,12.10
2018-09-23T04:54:38.294Z,12.10
2018-09-23T04:57:06.686Z,12.00
2018-09-23T04:59:35.318Z,12.20
2018-09-23T05:02:03.945Z,12.20
2018-09-23T05:04:32.318Z,12.20
2018-09-23T05:07:00.655Z,12.30
2018-09-23T05:09:29.031Z,12.30
2018-09-23T05:11:57.702Z,12.30
2018-09-23T05:14:26.343Z,12.30
2018-09-23T05:16:55.006Z,12.30
2018-09-23T05:19:23.779Z,12.40
2018-09-23T05:21:52.499Z,12.50
2018-09-23T05:24:21.390Z,12.50
2018-09-23T05:26:49.783Z,12.60
2018-09-23T05:29:18.419Z,12.60
2018-09-23T05:31:47.038Z,12.40
2018-09-23T05:34:15.947Z,12.60
2018-09-23T05:36:44.615Z,13.00
2018-09-23T05:39:12.983Z,12.90
2018-09-23T05:41:41.638Z,13.00
2018-09-23T05:44:10.414Z,13.00
2018-09-23T05:46:40.015Z,13.10
2018-09-23T05:49:08.753Z,13.10
2018-09-23T05:51:37.474Z,13.20
2018-09-23T05:54:06.442Z,13.20
2018-09-23T05:56:34.821Z,12.20
2018-09-23T05:59:03.191Z,13.30
2018-09-23T06:01:31.659Z,13.30
2018-09-23T06:04:00.358Z,12.90
2018-09-23T06:06:28.707Z,13.50
2018-09-23T06:08:57.159Z,13.50
2018-09-23T06:11:26.271Z,13.20
2018-09-23T06:13:54.639Z,13.70
2018-09-23T06:16:23.694Z,13.80
2018-09-23T06:18:52.306Z,13.80
2018-09-23T06:21:21.359Z,14.00
2018-09-23T06:23:50.063Z,14.10
2018-09-23T06:26:18.423Z,14.30
2018-09-23T06:28:46.802Z,14.20
2018-09-23T06:31:15.454Z,14.20
2018-09-23T06:33:43.809Z,14.30
2018-09-23T06:36:12.158Z,14.30
2018-09-23T06:38:40.547Z,14.40
2018-09-23T06:41:08.907Z,14.50
2018-09-23T06:43:37.674Z,14.50
2018-09-23T06:46:06.475Z,14.60
2018-09-23T06:48:35.065Z,14.60
2018-09-23T06:51:04.404Z,14.50
2018-09-23T06:53:32.718Z,14.80
2018-09-23T06:56:01.327Z,15.00
2018-09-23T06:58:30.005Z,15.00
2018-09-23T07:00:58.391Z,15.10
2018-09-23T07:03:26.775Z,15.20
2018-09-23T07:05:55.462Z,15.40
2018-09-23T07:08:24.176Z,15.40
2018-09-23T07:10:52.535Z,15.40
2018-09-23T07:13:21.253Z,15.60
2018-09-23T07:15:49.891Z,15.60
2018-09-23T07:18:18.491Z,15.80
2018-09-23T07:20:47.203Z,16.00
2018-09-23T07:23:15.835Z,15.80
2018-09-23T07:25:44.542Z,15.90
2018-09-23T07:28:12.899Z,15.90
2018-09-23T07:30:41.307Z,15.70
2018-09-23T07:33:10.267Z,16.20
2018-09-23T07:35:38.615Z,16.20
2018-09-23T07:38:07.278Z,16.50
2018-09-23T07:40:36.279Z,16.60
2018-09-23T07:43:04.671Z,16.80
2018-09-23T07:45:33.019Z,16.90
2018-09-23T07:48:01.395Z,17.30
2018-09-23T07:50:30.049Z,17.40
2018-09-23T07:52:58.418Z,17.60
2018-09-23T07:55:27.508Z,17.60
2018-09-23T07:57:55.879Z,17.70
2018-09-23T08:00:24.539Z,17.70
2018-09-23T08:02:53.225Z,17.40
2018-09-23T08:05:21.580Z,18.00
2018-09-23T08:07:49.976Z,18.20
2018-09-23T08:10:18.330Z,18.40
2018-09-23T08:12:46.969Z,18.50
2018-09-23T08:15:15.523Z,18.70
2018-09-23T08:17:44.227Z,18.80
2018-09-23T08:20:12.726Z,18.90
2018-09-23T08:22:41.064Z,19.00
2018-09-23T08:25:10.073Z,19.10
2018-09-23T08:27:38.511Z,19.30
2018-09-23T08:30:07.095Z,19.30
2018-09-23T08:32:35.715Z,19.20
2018-09-23T08:35:04.104Z,19.20
2018-09-23T08:37:32.534Z,19.30
2018-09-23T08:40:01.163Z,19.00
2018-09-23T08:42:29.531Z,19.40
2018-09-23T08:44:57.874Z,19.50
2018-09-23T08:47:26.531Z,19.40
2018-09-23T08:49:55.215Z,19.40
2018-09-23T08:52:23.903Z,19.50
2018-09-23T08:54:52.603Z,19.40
2018-09-23T08:57:21.167Z,19.40
2018-09-23T08:59:49.499Z,19.40
2018-09-23T09:02:18.135Z,19.50
2018-09-23T09:04:47.100Z,19.40
2018-09-23T09:07:15.795Z,19.50
2018-09-23T09:09:44.166Z,19.40
2018-09-23T09:12:13.081Z,19.50
2018-09-23T09:14:41.471Z,19.50
2018-09-23T09:17:09.830Z,19.50
2018-09-23T09:19:38.266Z,19.00
2018-09-23T09:22:06.866Z,19.20
2018-09-23T09:24:35.235Z,19.10
2018-09-23T09:27:03.848Z,19.00
2018-09-23T09:29:32.185Z,19.10
2018-09-23T09:32:00.554Z,19.10
2018-09-23T09:34:29.199Z,19.20
2018-09-23T09:36:57.826Z,19.20
2018-09-23T09:39:26.238Z,19.30
2018-09-23T09:41:54.578Z,19.40
2018-09-23T09:44:23.002Z,19.40
2018-09-23T09:46:51.364Z,19.50
2018-09-23T09:49:19.990Z,19.50
2018-09-23T09:51:48.350Z,19.50
2018-09-23T09:54:18.579Z,19.60
2018-09-23T09:56:46.967Z,19.60
2018-09-23T09:59:15.366Z,19.60
2018-09-23T10:01:43.711Z,19.70
2018-09-23T10:04:12.489Z,19.80
2018-09-23T10:06:41.087Z,19.70
2018-09-23T10:09:10.919Z,19.70
2018-09-23T10:11:39.653Z,19.80
2018-09-23T10:14:08.185Z,20.00
2018-09-23T10:16:36.850Z,20.00
2018-09-23T10:19:05.457Z,20.10
2018-09-23T10:21:33.851Z,20.10
2018-09-23T10:24:02.329Z,20.20
2018-09-23T10:26:31.184Z,20.30
2018-09-23T10:29:00.083Z,20.30
2018-09-23T10:31:28.507Z,20.40
2018-09-23T10:33:56.939Z,20.50
2018-09-23T10:36:25.516Z,20.60
2018-09-23T10:38:54.507Z,20.60
2018-09-23T10:41:22.995Z,20.80
2018-09-23T10:43:51.611Z,20.80
2018-09-23T10:46:20.003Z,21.10
2018-09-23T10:48:48.368Z,21.20
2018-09-23T10:51:17.018Z,21.60
2018-09-23T10:53:45.682Z,21.30
2018-09-23T10:56:14.074Z,21.40
2018-09-23T10:58:42.762Z,21.50
2018-09-23T11:01:11.143Z,21.70
2018-09-23T11:03:39.553Z,21.40
2018-09-23T11:06:07.982Z,21.50
2018-09-23T11:08:36.334Z,21.60
2018-09-23T11:11:04.716Z,21.70
2018-09-23T11:13:33.067Z,21.70
2018-09-23T11:16:01.692Z,21.80
2018-09-23T11:18:30.066Z,21.80
2018-09-23T11:20:58.443Z,21.90
2018-09-23T11:23:26.891Z,22.00
2018-09-23T11:25:55.746Z,22.10
2018-09-23T11:28:24.394Z,22.10
2018-09-23T11:30:52.759Z,22.20
2018-09-23T11:33:21.344Z,22.20
2018-09-23T11:35:50.018Z,22.30
2018-09-23T11:38:18.411Z,22.30
2018-09-23T11:40:46.782Z,22.40
2018-09-23T11:43:15.416Z,22.40
2018-09-23T11:45:44.302Z,22.50
2018-09-23T11:48:12.711Z,22.70
2018-09-23T11:50:41.403Z,22.90
2018-09-23T11:53:09.762Z,23.20
2018-09-23T11:55:38.531Z,23.40
2018-09-23T11:58:06.951Z,23.60
2018-09-23T12:00:35.334Z,23.90
2018-09-23T12:03:04.423Z,24.40
2018-09-23T12:05:33.015Z,25.50
2018-09-23T12:08:01.423Z,25.30
2018-09-23T12:10:30.133Z,25.30
2018-09-23T12:15:26.815Z,26.20
2018-09-23T12:17:55.471Z,25.90
2018-09-23T12:20:23.855Z,25.70
2018-09-23T12:22:52.367Z,25.10
2018-09-23T12:25:20.797Z,25.10
2018-09-23T12:27:49.450Z,25.20
2018-09-23T12:30:17.787Z,25.60
2018-09-23T12:32:46.182Z,25.70
2018-09-23T12:35:14.532Z,25.50
2018-09-23T12:37:42.911Z,25.50
2018-09-23T12:40:11.800Z,26.10
2018-09-23T12:42:40.411Z,26.30
2018-09-23T12:45:09.015Z,26.60
2018-09-23T12:47:37.680Z,26.80
2018-09-23T12:50:06.133Z,27.00
2018-09-23T12:52:34.488Z,26.60
2018-09-23T12:55:02.870Z,26.60
2018-09-23T12:57:31.266Z,26.40
2018-09-23T13:00:00.115Z,25.80
2018-09-23T13:02:28.561Z,25.60
2018-09-23T13:04:56.842Z,25.80
2018-09-23T13:07:25.497Z,25.60
2018-09-23T13:09:54.179Z,25.90
2018-09-23T13:12:22.763Z,25.40
2018-09-23T13:14:52.135Z,25.20
2018-09-23T13:17:20.775Z,24.60
2018-09-23T13:19:49.119Z,24.30
2018-09-23T13:22:17.527Z,24.30
2018-09-23T13:24:46.430Z,24.30
2018-09-23T13:27:15.390Z,24.10
2018-09-23T13:29:44.402Z,23.90
2018-09-23T13:32:12.758Z,24.00
2018-09-23T13:34:41.134Z,24.00
2018-09-23T13:37:10.470Z,24.00
2018-09-23T13:39:38.856Z,23.90
2018-09-23T13:42:07.747Z,23.90
2018-09-23T13:44:36.215Z,23.80
2018-09-23T13:47:05.295Z,23.90
2018-09-23T13:49:33.686Z,24.10
2018-09-23T13:52:02.114Z,24.30
2018-09-23T13:54:30.577Z,24.40
2018-09-23T13:56:58.902Z,24.30
2018-09-23T13:59:27.290Z,24.30
2018-09-23T14:01:55.685Z,24.30
2018-09-23T14:04:24.323Z,24.10
2018-09-23T14:06:53.330Z,24.00
2018-09-23T14:09:22.049Z,24.10
2018-09-23T14:11:51.131Z,24.00
2018-09-23T14:14:20.056Z,24.00
2018-09-23T14:16:48.438Z,24.00
2018-09-23T14:19:16.811Z,23.90
2018-09-23T14:21:45.753Z,23.80
2018-09-23T14:24:14.435Z,23.80
2018-09-23T14:26:43.654Z,23.80
2018-09-23T14:29:12.295Z,23.70
2018-09-23T14:31:40.659Z,23.70
2018-09-23T14:34:08.999Z,23.70
2018-09-23T14:36:37.712Z,23.70
2018-09-23T14:39:08.647Z,23.80
2018-09-23T14:41:37.178Z,23.90
2018-09-23T14:44:05.587Z,23.80
2018-09-23T14:46:34.071Z,23.80
2018-09-23T14:49:02.519Z,23.80
2018-09-23T14:51:30.882Z,23.80
2018-09-23T14:53:59.746Z,23.70
2018-09-23T14:56:28.109Z,23.80
2018-09-23T14:58:56.480Z,23.80
2018-09-23T15:01:24.863Z,23.80
2018-09-23T15:03:53.826Z,23.80
2018-09-23T15:06:22.610Z,23.80
2018-09-23T15:08:50.943Z,23.80
2018-09-23T15:11:19.290Z,24.10
2018-09-23T15:13:48.022Z,23.80
2018-09-23T15:16:16.611Z,23.90
2018-09-23T15:18:45.115Z,23.80
2018-09-23T15:21:13.534Z,23.80
2018-09-23T15:23:42.475Z,23.80
2018-09-23T15:26:10.889Z,23.70
2018-09-23T15:28:39.588Z,23.70
2018-09-23T15:31:07.951Z,23.70
2018-09-23T15:33:36.948Z,23.70
2018-09-23T15:36:05.376Z,23.70
2018-09-23T15:38:33.745Z,23.70
2018-09-23T15:41:02.156Z,23.70
2018-09-23T15:43:30.539Z,23.70
2018-09-23T15:45:58.895Z,23.70
2018-09-23T15:48:27.273Z,23.70
2018-09-23T15:50:56.225Z,23.70
2018-09-23T15:53:24.892Z,23.70
2018-09-23T15:55:53.506Z,23.70
2018-09-23T15:58:21.862Z,23.70
2018-09-23T16:00:50.680Z,23.80
2018-09-23T16:03:19.034Z,23.80
2018-09-23T16:05:47.679Z,23.80
2018-09-23T16:08:16.055Z,23.80
2018-09-23T16:10:44.754Z,23.90
2018-09-23T16:13:13.251Z,23.80
2018-09-23T16:15:41.890Z,23.80
2018-09-23T16:18:10.267Z,23.70
2018-09-23T16:20:38.938Z,23.70
2018-09-23T16:23:08.063Z,23.70
2018-09-23T16:25:36.749Z,23.40
2018-09-23T16:30:33.198Z,22.80
2018-09-23T16:33:01.639Z,22.70
2018-09-23T16:35:30.291Z,22.10
2018-09-23T16:37:58.736Z,21.70
2018-09-23T16:40:27.099Z,20.70
2018-09-23T16:42:55.703Z,19.30
2018-09-23T16:45:24.083Z,18.10
2018-09-23T16:47:52.686Z,17.40
2018-09-23T16:50:21.067Z,17.10
2018-09-23T16:52:49.735Z,16.80
2018-09-23T16:55:18.388Z,16.70
2018-09-23T16:57:46.758Z,16.50
2018-09-23T17:00:15.147Z,16.60
2018-09-23T17:02:43.791Z,16.40
2018-09-23T17:05:12.890Z,16.20
2018-09-23T17:07:41.762Z,16.30
2018-09-23T17:10:10.209Z,16.30
2018-09-23T17:12:38.575Z,16.30
2018-09-23T17:15:07.202Z,16.20
2018-09-23T17:17:35.629Z,16.20
2018-09-23T17:20:04.039Z,16.20
2018-09-23T17:22:32.718Z,16.10
2018-09-23T17:25:01.073Z,16.20
2018-09-23T17:27:29.711Z,16.00
2018-09-23T17:29:58.680Z,16.00
2018-09-23T17:32:27.063Z,16.00
2018-09-23T17:34:55.442Z,16.00
2018-09-23T17:37:24.934Z,16.10
2018-09-23T17:39:53.519Z,15.90
2018-09-23T17:42:21.928Z,15.90
2018-09-23T17:44:50.281Z,15.90
2018-09-23T17:47:18.654Z,15.60
2018-09-23T17:49:47.246Z,15.80
2018-09-23T17:52:15.607Z,15.80
2018-09-23T17:54:43.982Z,15.80
2018-09-23T17:57:13.043Z,15.80
2018-09-23T17:59:41.391Z,15.70
2018-09-23T18:02:09.792Z,15.70
2018-09-23T18:04:38.204Z,15.60
2018-09-23T18:07:06.602Z,15.60
2018-09-23T18:09:34.955Z,15.60
2018-09-23T18:12:03.371Z,15.50
2018-09-23T18:14:31.735Z,15.20
2018-09-23T18:17:00.419Z,15.00
2018-09-23T18:19:29.014Z,14.70
2018-09-23T18:21:57.659Z,14.40
2018-09-23T18:24:26.271Z,14.20
2018-09-23T18:26:54.643Z,14.00
2018-09-23T18:29:23.050Z,13.80
2018-09-23T18:31:51.422Z,13.80
2018-09-23T18:34:20.114Z,13.80
2018-09-23T18:36:48.478Z,13.20
2018-09-23T18:39:17.163Z,13.60
2018-09-23T18:41:46.112Z,13.50
2018-09-23T18:44:14.778Z,13.40
2018-09-23T18:46:43.416Z,13.40
2018-09-23T18:49:11.810Z,13.30
2018-09-23T18:51:40.770Z,13.20
2018-09-23T18:54:14.507Z,13.10
2018-09-23T18:56:42.879Z,13.10
2018-09-23T18:59:11.311Z,13.10
2018-09-23T19:01:39.674Z,13.10
2018-09-23T19:04:08.043Z,13.00
2018-09-23T19:06:36.458Z,12.90
2018-09-23T19:09:06.614Z,12.80
2018-09-23T19:11:34.978Z,12.80
2018-09-23T19:14:03.383Z,12.70
2018-09-23T19:16:33.182Z,12.70
2018-09-23T19:19:01.841Z,12.60
2018-09-23T19:21:30.661Z,12.50
2018-09-23T19:24:00.195Z,12.60
2018-09-23T19:26:28.791Z,12.50
2018-09-23T19:28:57.555Z,12.50
2018-09-23T19:31:26.051Z,12.40
2018-09-23T19:33:54.666Z,12.40
2018-09-23T19:36:23.364Z,12.40
2018-09-23T19:38:52.103Z,12.40
2018-09-23T19:41:20.463Z,12.30
2018-09-23T19:43:49.174Z,12.30
2018-09-23T19:46:17.519Z,12.20
2018-09-23T19:48:46.183Z,12.20
2018-09-23T19:51:14.598Z,12.10
2018-09-23T19:53:42.990Z,12.10
2018-09-23T19:56:11.371Z,12.00
2018-09-23T19:58:40.118Z,12.00
2018-09-23T20:01:08.496Z,12.00
2018-09-23T20:03:37.207Z,12.00
2018-09-23T20:06:05.775Z,11.90
2018-09-23T20:08:34.605Z,11.90
2018-09-23T20:11:03.598Z,11.90
2018-09-23T20:13:31.971Z,11.80
2018-09-23T20:16:00.391Z,11.80
2018-09-23T20:18:28.767Z,11.70
2018-09-23T20:20:57.415Z,11.60
2018-09-23T20:23:25.815Z,11.60
2018-09-23T20:25:54.191Z,11.60
2018-09-23T20:28:22.607Z,11.50
2018-09-23T20:30:51.115Z,11.50
2018-09-23T20:33:20.401Z,11.50
2018-09-23T20:35:48.846Z,11.40
2018-09-23T20:38:17.174Z,11.40
2018-09-23T20:40:45.558Z,11.40
2018-09-23T20:43:14.194Z,11.30
2018-09-23T20:45:42.592Z,11.20
2018-09-23T20:48:11.275Z,11.20
2018-09-23T20:50:39.680Z,11.20
2018-09-23T20:53:08.041Z,11.20
2018-09-23T20:55:36.698Z,11.10
2018-09-23T20:58:06.249Z,11.10
2018-09-23T21:00:35.201Z,11.10
2018-09-23T21:03:03.927Z,11.00
2018-09-23T21:05:32.567Z,11.00
2018-09-23T21:08:00.937Z,11.10
2018-09-23T21:10:29.559Z,11.00
2018-09-23T21:12:58.234Z,11.10
2018-09-23T21:15:27.211Z,11.10
2018-09-23T21:17:55.554Z,11.20
2018-09-23T21:20:24.167Z,11.20
2018-09-23T21:22:52.570Z,11.20
2018-09-23T21:25:21.235Z,11.10
2018-09-23T21:27:49.606Z,11.10
2018-09-23T21:30:18.223Z,11.10
2018-09-23T21:32:46.572Z,11.10
2018-09-23T21:35:15.282Z,11.10
2018-09-23T21:37:43.670Z,11.20
2018-09-23T21:40:12.080Z,11.20
2018-09-23T21:42:40.858Z,11.30
2018-09-23T21:45:09.235Z,11.30
2018-09-23T21:47:37.890Z,11.30
2018-09-23T21:50:06.483Z,11.20
2018-09-23T21:52:34.938Z,11.10
2018-09-23T21:55:03.343Z,11.20
2018-09-23T21:57:31.728Z,11.10
2018-09-23T22:00:00.103Z,11.10
2018-09-23T22:02:28.467Z,11.00
2018-09-23T22:04:56.817Z,11.00
2018-09-23T22:07:25.551Z,10.90
2018-09-23T22:09:54.188Z,10.80
2018-09-23T22:12:22.772Z,10.70
2018-09-23T22:14:51.146Z,10.70
2018-09-23T22:17:19.853Z,10.70
2018-09-23T22:19:49.342Z,10.70
2018-09-23T22:22:18.027Z,10.70
2018-09-23T22:24:46.375Z,10.60
2018-09-23T22:27:14.768Z,10.60
2018-09-23T22:29:43.127Z,10.60
2018-09-23T22:32:11.502Z,10.50
2018-09-23T22:34:40.451Z,10.50
2018-09-23T22:37:09.114Z,10.60
2018-09-23T22:39:37.496Z,10.50
2018-09-23T22:42:06.189Z,10.50
2018-09-23T22:44:34.532Z,10.40
2018-09-23T22:47:02.911Z,10.40
2018-09-23T22:49:31.256Z,10.40
2018-09-23T22:52:00.207Z,10.40
2018-09-23T22:54:28.894Z,10.40
2018-09-23T22:56:57.566Z,10.40
2018-09-23T22:59:27.102Z,10.30
2018-09-23T23:01:55.442Z,10.30
2018-09-23T23:04:23.793Z,10.30
2018-09-23T23:06:52.179Z,10.30
2018-09-23T23:09:20.534Z,10.30
2018-09-23T23:11:49.527Z,10.30
2018-09-23T23:14:17.862Z,10.30
2018-09-23T23:16:46.228Z,10.20
2018-09-23T23:19:14.596Z,10.20
2018-09-23T23:21:42.974Z,10.20
2018-09-23T23:24:11.377Z,10.20
2018-09-23T23:26:39.743Z,10.30
2018-09-23T23:29:08.400Z,10.10
2018-09-23T23:31:37.192Z,10.00
2018-09-23T23:34:05.571Z,10.00
2018-09-23T23:36:33.927Z,10.00
2018-09-23T23:39:04.715Z,10.00
2018-09-23T23:41:33.603Z,10.00
2018-09-23T23:44:02.528Z,10.00
2018-09-23T23:46:30.892Z,10.00
2018-09-23T23:48:59.870Z,10.00
2018-09-23T23:51:28.834Z,10.00
2018-09-23T23:53:57.975Z,10.00
2018-09-23T23:56:26.614Z,9.90
2018-09-23T23:58:55.342Z,9.90
